Time;durP1;ratioP1;P1;durP2;ratioP2;P2;SDS_P1;SDS_P2;PMS_P1;PMS_P2;Temp;Humidity;BMP_temperature;BMP_pressure;BME280_temperature;BME280_humidity;BME280_pressure;Samples;Min_cycle;Max_cycle;Signal;HPM_P1;HPM_P2
2020/12/12 00:00:29;;;;;;;17.00;9.33;;;;;;;9.96;58.86;153730.69;1722979;82;21239;-68
2020/12/12 00:03:01;;;;;;;19.30;9.03;;;;;;;10.03;58.75;153747.77;1722917;81;21276;-68
2020/12/12 00:05:34;;;;;;;19.98;8.78;;;;;;;10.03;58.84;153749.11;1749942;80;21247;-68
2020/12/12 00:08:06;;;;;;;22.85;9.18;;;;;;;10.07;58.89;153758.27;1754589;81;21379;-69
2020/12/12 00:10:39;;;;;;;22.45;8.45;;;;;;;10.07;58.68;153758.27;1755544;81;21232;-68
2020/12/12 00:13:14;;;;;;;17.87;8.83;;;;;;;9.99;58.97;153738.61;1755179;81;21259;-68
2020/12/12 00:15:46;;;;;;;21.17;10.10;;;;;;;10.06;58.93;153755.64;1754190;81;21236;-68
2020/12/12 00:18:19;;;;;;;19.17;9.05;;;;;;;10.04;58.95;153751.73;1753473;81;21221;-68
2020/12/12 00:20:51;;;;;;;22.90;10.23;;;;;;;10.00;58.94;153739.94;1755245;81;21382;-68
2020/12/12 00:23:25;;;;;;;22.10;10.30;;;;;;;10.05;58.94;153754.34;1755888;81;21227;-68
2020/12/12 00:25:57;;;;;;;21.45;8.55;;;;;;;10.07;58.92;153758.27;1753468;81;21803;-68
2020/12/12 00:28:31;;;;;;;20.68;10.23;;;;;;;10.03;59.13;153747.77;1754653;81;21853;-68
2020/12/12 00:31:03;;;;;;;20.30;10.20;;;;;;;10.07;59.06;153759.55;1753480;81;21231;-68
2020/12/12 00:33:35;;;;;;;23.62;9.75;;;;;;;10.15;59.08;153780.55;1718918;80;21207;-68
2020/12/12 00:36:08;;;;;;;16.12;9.05;;;;;;;10.16;59.04;153783.17;1721937;83;22032;-68
2020/12/12 00:38:40;;;;;;;17.48;9.25;;;;;;;10.12;59.00;153772.67;1756048;81;21499;-68
2020/12/12 00:41:13;;;;;;;20.90;10.48;;;;;;;10.17;59.07;153785.80;1754535;81;21267;-68
2020/12/12 00:43:45;;;;;;;19.30;10.05;;;;;;;10.23;59.13;153800.22;1755877;81;21225;-69
2020/12/12 00:46:17;;;;;;;21.73;9.65;;;;;;;10.31;59.02;153822.44;1754454;81;21819;-68
2020/12/12 00:48:50;;;;;;;18.60;9.75;;;;;;;10.29;58.98;153817.25;1754487;81;21433;-68
2020/12/12 00:51:23;;;;;;;19.87;8.63;;;;;;;10.36;58.94;153834.23;1754371;81;22223;-68
2020/12/12 00:53:55;;;;;;;20.50;8.83;;;;;;;10.32;59.10;153823.78;1754442;81;21289;-68
2020/12/12 00:56:28;;;;;;;19.77;8.93;;;;;;;10.22;59.07;153797.59;1730259;82;21246;-68
2020/12/12 00:59:00;;;;;;;18.52;8.28;;;;;;;10.19;59.17;153791.00;1721366;83;21299;-68
2020/12/12 01:01:32;;;;;;;17.32;8.85;;;;;;;10.28;59.10;153814.63;1754471;81;21244;-68
2020/12/12 01:04:04;;;;;;;18.05;9.20;;;;;;;10.34;59.11;153830.33;1754141;81;22334;-68
2020/12/12 01:06:36;;;;;;;18.37;9.13;;;;;;;10.34;59.02;153829.03;1753890;81;21526;-69
2020/12/12 01:09:09;;;;;;;19.60;8.88;;;;;;;10.37;59.00;153836.86;1755334;81;22179;-68
2020/12/12 01:11:41;;;;;;;18.42;8.43;;;;;;;10.38;58.98;153840.83;1752823;81;21461;-68
2020/12/12 01:14:13;;;;;;;15.43;7.75;;;;;;;10.36;58.93;153834.23;1754317;81;21275;-68
2020/12/12 01:16:46;;;;;;;23.22;9.93;;;;;;;10.43;58.89;153852.63;1749298;81;21525;-68
2020/12/12 01:19:19;;;;;;;18.37;8.50;;;;;;;10.39;58.90;153843.45;1755857;81;21212;-68
2020/12/12 01:21:55;;;;;;;16.15;7.62;;;;;;;10.42;58.89;153849.98;1754789;81;21379;-68
2020/12/12 01:24:28;;;;;;;17.20;9.03;;;;;;;10.39;58.87;153843.45;1753065;81;21857;-68
2020/12/12 01:27:00;;;;;;;15.98;8.88;;;;;;;10.32;58.89;153825.08;1751235;81;21366;-68
2020/12/12 01:29:32;;;;;;;18.07;10.45;;;;;;;10.29;59.04;153815.91;1728851;82;21388;-68
2020/12/12 01:32:05;;;;;;;16.20;8.08;;;;;;;10.26;59.26;153809.37;1754316;80;21487;-68
2020/12/12 01:34:37;;;;;;;18.15;8.95;;;;;;;10.20;59.31;153792.34;1754370;81;21358;-68
2020/12/12 01:37:09;;;;;;;16.35;8.58;;;;;;;10.23;59.23;153800.22;1755932;81;21271;-68
2020/12/12 01:39:42;;;;;;;22.55;9.05;;;;;;;10.28;59.18;153813.28;1754647;81;21251;-68
2020/12/12 01:42:14;;;;;;;20.45;8.28;;;;;;;10.18;59.29;153788.42;1752882;81;21279;-68
2020/12/12 01:44:46;;;;;;;18.12;8.00;;;;;;;10.25;59.02;153805.41;1753926;81;21492;-68
2020/12/12 01:47:19;;;;;;;15.75;8.60;;;;;;;10.18;59.06;153788.42;1723756;81;21697;-68
2020/12/12 01:49:54;;;;;;;19.23;9.50;;;;;;;10.20;59.03;153793.63;1754695;81;21393;-68
2020/12/12 01:52:26;;;;;;;18.67;9.68;;;;;;;10.28;58.99;153813.28;1757132;81;21727;-69
2020/12/12 01:54:58;;;;;;;15.95;8.25;;;;;;;10.29;58.70;153817.25;1753162;81;21240;-68
2020/12/12 01:57:31;;;;;;;19.10;9.55;;;;;;;10.33;58.64;153827.69;1755816;81;21315;-68
2020/12/12 02:00:04;;;;;;;17.30;9.20;;;;;;;10.35;58.60;153831.66;1755783;81;21228;-68
2020/12/12 02:02:36;;;;;;;21.37;9.03;;;;;;;10.12;58.87;153771.39;1710919;82;21223;-68
2020/12/12 02:05:08;;;;;;;19.15;9.83;;;;;;;10.28;58.68;153813.28;1722062;81;21220;-68
2020/12/12 02:07:41;;;;;;;21.15;10.85;;;;;;;10.31;58.67;153821.16;1760621;80;21233;-68
2020/12/12 02:10:13;;;;;;;19.50;9.00;;;;;;;10.31;58.54;153822.44;1755523;81;21414;-68
2020/12/12 02:12:45;;;;;;;19.17;10.03;;;;;;;10.30;58.21;153819.83;1751095;81;21381;-68
2020/12/12 02:15:17;;;;;;;21.93;9.85;;;;;;;10.27;58.35;153810.66;1756101;81;21245;-68
2020/12/12 02:17:49;;;;;;;17.60;9.28;;;;;;;10.19;58.35;153789.72;1753071;81;21609;-69
2020/12/12 02:20:23;;;;;;;21.68;10.15;;;;;;;10.26;58.20;153809.37;1754812;81;21204;-68
2020/12/12 02:22:56;;;;;;;22.13;10.58;;;;;;;10.28;58.16;153813.28;1754279;81;21230;-68
2020/12/12 02:25:28;;;;;;;17.52;9.40;;;;;;;10.33;58.27;153826.41;1754229;81;21377;-68
2020/12/12 02:28:01;;;;;;;21.70;10.85;;;;;;;10.20;58.40;153793.63;1724436;82;21238;-68
2020/12/12 02:30:33;;;;;;;17.87;8.58;;;;;;;10.33;58.29;153826.41;1753630;81;21229;-68
2020/12/12 02:33:06;;;;;;;15.60;7.95;;;;;;;10.18;58.37;153788.42;1743219;81;21215;-68
2020/12/12 02:35:38;;;;;;;21.57;10.55;;;;;;;10.14;58.41;153777.92;1716736;83;21730;-68
2020/12/12 02:38:10;;;;;;;18.10;9.40;;;;;;;10.18;58.21;153788.42;1756011;81;21252;-69
2020/12/12 02:40:43;;;;;;;17.23;8.73;;;;;;;10.47;57.64;153863.13;1755604;81;21284;-68
2020/12/12 02:43:15;;;;;;;19.73;8.60;;;;;;;10.47;57.71;153863.13;1752808;81;21205;-68
2020/12/12 02:45:49;;;;;;;17.98;8.85;;;;;;;10.48;57.61;153867.03;1754026;81;21288;-68
2020/12/12 02:48:22;;;;;;;18.05;8.43;;;;;;;10.41;57.78;153847.36;1725776;82;21239;-68
2020/12/12 02:50:54;;;;;;;18.37;8.43;;;;;;;10.47;57.61;153863.13;1733189;82;21794;-68
2020/12/12 02:53:27;;;;;;;15.08;8.20;;;;;;;10.46;57.33;153860.48;1731122;82;21242;-67
2020/12/12 02:55:59;;;;;;;18.62;9.08;;;;;;;10.48;57.10;153867.03;1730308;82;21254;-68
2020/12/12 02:58:31;;;;;;;19.70;9.28;;;;;;;10.54;57.04;153881.44;1726332;82;21258;-68
2020/12/12 03:01:03;;;;;;;17.92;9.43;;;;;;;10.51;57.06;153874.91;1726443;82;21231;-68
2020/12/12 03:03:36;;;;;;;20.65;8.20;;;;;;;10.55;56.93;153885.36;1726425;82;22046;-68
2020/12/12 03:06:08;;;;;;;16.95;9.50;;;;;;;10.61;56.90;153899.78;1720949;82;21219;-69
2020/12/12 03:08:40;;;;;;;16.12;8.68;;;;;;;10.65;56.66;153910.28;1732273;82;21820;-68
2020/12/12 03:11:13;;;;;;;20.70;8.45;;;;;;;10.59;56.66;153895.86;1757949;81;21281;-68
2020/12/12 03:13:45;;;;;;;18.82;8.80;;;;;;;10.33;56.72;153827.69;1755521;81;21226;-68
2020/12/12 03:16:18;;;;;;;18.57;9.23;;;;;;;10.44;56.73;153855.23;1755217;81;21233;-68
2020/12/12 03:18:52;;;;;;;20.52;9.25;;;;;;;10.40;56.90;153846.08;1726025;82;21516;-68
2020/12/12 03:21:24;;;;;;;17.48;8.40;;;;;;;10.33;57.25;153827.69;1749964;81;21259;-68
2020/12/12 03:23:57;;;;;;;15.90;8.63;;;;;;;10.28;57.54;153813.28;1735132;82;21293;-69
2020/12/12 03:26:29;;;;;;;18.12;9.20;;;;;;;10.20;57.12;153793.63;1721963;83;21227;-68
2020/12/12 03:29:01;;;;;;;17.98;9.18;;;;;;;10.16;57.09;153781.84;1754035;81;21227;-68
2020/12/12 03:31:34;;;;;;;22.25;10.48;;;;;;;10.20;57.47;153792.34;1754664;80;22042;-68
2020/12/12 03:34:06;;;;;;;16.52;8.40;;;;;;;10.22;56.99;153797.59;1753921;81;21232;-68
2020/12/12 03:36:39;;;;;;;21.20;9.25;;;;;;;10.13;57.07;153773.97;1753682;81;21217;-68
2020/12/12 03:39:12;;;;;;;17.52;9.00;;;;;;;10.15;56.86;153780.55;1752044;81;21231;-68
2020/12/12 03:41:44;;;;;;;19.10;8.38;;;;;;;10.19;56.69;153791.00;1751178;81;21276;-68
2020/12/12 03:44:16;;;;;;;18.95;8.98;;;;;;;10.14;56.81;153777.92;1748967;80;21263;-68
2020/12/12 03:46:48;;;;;;;20.95;10.08;;;;;;;10.16;57.03;153783.17;1750710;81;22042;-69
2020/12/12 03:49:21;;;;;;;19.07;8.53;;;;;;;10.18;56.84;153787.08;1751300;81;22053;-69
2020/12/12 03:51:53;;;;;;;16.35;9.35;;;;;;;10.23;56.87;153801.50;1754291;81;21292;-68
2020/12/12 03:54:27;;;;;;;22.98;8.88;;;;;;;10.20;56.72;153793.63;1755121;81;21228;-68
2020/12/12 03:56:59;;;;;;;16.05;8.18;;;;;;;10.19;56.76;153791.00;1745931;81;21295;-68
2020/12/12 03:59:31;;;;;;;18.57;9.20;;;;;;;10.24;56.77;153802.84;1753229;81;21236;-68
2020/12/12 04:02:04;;;;;;;22.27;9.95;;;;;;;9.85;57.02;153701.86;1753860;81;21235;-68
2020/12/12 04:04:36;;;;;;;20.88;9.40;;;;;;;9.73;57.40;153667.80;1755248;81;21370;-68
2020/12/12 04:07:08;;;;;;;18.32;8.10;;;;;;;9.78;57.25;153682.22;1755292;81;21233;-68
2020/12/12 04:09:41;;;;;;;19.00;9.23;;;;;;;9.72;57.21;153665.23;1754334;81;21263;-68
2020/12/12 04:12:14;;;;;;;21.97;9.68;;;;;;;9.88;57.24;153708.45;1754296;81;21448;-68
2020/12/12 04:14:47;;;;;;;18.50;9.95;;;;;;;9.73;57.04;153667.80;1751736;81;21217;-68
2020/12/12 04:17:19;;;;;;;19.10;8.85;;;;;;;9.80;57.34;153687.45;1753134;81;21223;-68
2020/12/12 04:19:51;;;;;;;21.42;9.03;;;;;;;9.75;57.24;153673.05;1752475;81;21203;-68
2020/12/12 04:22:24;;;;;;;19.30;8.95;;;;;;;9.72;57.63;153666.52;1752489;81;21227;-68
2020/12/12 04:24:56;;;;;;;18.27;8.40;;;;;;;9.87;57.46;153707.11;1748133;80;21594;-68
2020/12/12 04:27:30;;;;;;;17.27;8.20;;;;;;;9.70;57.51;153661.27;1754276;81;21288;-68
2020/12/12 04:30:02;;;;;;;20.05;7.92;;;;;;;9.66;57.41;153650.83;1752811;81;21240;-68
2020/12/12 04:32:35;;;;;;;18.52;8.60;;;;;;;9.62;57.33;153639.00;1753525;80;21244;-68
2020/12/12 04:35:08;;;;;;;16.90;8.65;;;;;;;9.67;57.39;153652.12;1749637;81;21249;-68
2020/12/12 04:37:40;;;;;;;14.83;7.50;;;;;;;9.68;57.29;153654.73;1751214;81;21303;-68
2020/12/12 04:40:13;;;;;;;23.87;9.88;;;;;;;9.56;56.93;153624.59;1753180;81;21224;-68
2020/12/12 04:42:45;;;;;;;16.52;8.40;;;;;;;9.51;56.69;153611.53;1751247;81;22010;-68
2020/12/12 04:45:23;;;;;;;20.17;8.73;;;;;;;9.49;56.83;153605.00;1747346;81;21220;-68
2020/12/12 04:47:56;;;;;;;21.25;8.80;;;;;;;9.39;56.83;153580.09;1752961;81;21207;-68
2020/12/12 04:50:31;;;;;;;21.35;10.48;;;;;;;9.32;57.07;153560.45;1753768;81;21207;-68
2020/12/12 04:53:18;;;;;;;21.10;9.75;;;;;;;9.27;57.00;153547.34;1746808;81;21552;-68
2020/12/12 04:55:51;;;;;;;19.15;8.58;;;;;;;9.11;56.89;153505.48;1733416;81;21234;-68
2020/12/12 04:58:28;;;;;;;17.25;8.68;;;;;;;9.14;57.09;153514.64;1718243;83;21506;-67
2020/12/12 05:01:01;;;;;;;15.72;7.85;;;;;;;9.15;56.81;153517.25;1748879;81;21257;-68
2020/12/12 05:03:33;;;;;;;15.70;8.18;;;;;;;9.19;56.49;153527.75;1737852;81;21470;-68
2020/12/12 05:06:06;;;;;;;15.65;7.35;;;;;;;9.20;56.53;153529.03;1755767;81;21250;-68
2020/12/12 05:08:38;;;;;;;13.30;7.40;;;;;;;9.14;56.41;153513.34;1719143;83;21251;-68
2020/12/12 05:11:12;;;;;;;18.48;8.78;;;;;;;9.16;56.36;153518.55;1750036;81;21424;-68
2020/12/12 05:13:45;;;;;;;16.77;8.00;;;;;;;9.19;56.19;153526.41;1722557;81;21299;-68
2020/12/12 05:16:18;;;;;;;18.07;8.75;;;;;;;9.31;56.02;153559.17;1723523;81;21962;-68
2020/12/12 05:18:51;;;;;;;18.07;8.63;;;;;;;9.42;55.98;153587.97;1752273;81;21244;-68
2020/12/12 05:21:24;;;;;;;16.62;8.70;;;;;;;9.48;55.98;153603.66;1752611;81;21245;-68
2020/12/12 05:23:56;;;;;;;13.80;7.60;;;;;;;9.48;55.87;153602.37;1753838;81;21526;-68
2020/12/12 05:26:30;;;;;;;17.20;8.88;;;;;;;9.49;55.76;153606.28;1722470;81;21256;-68
2020/12/12 05:29:04;;;;;;;16.40;8.33;;;;;;;9.44;55.47;153593.16;1727808;82;21247;-68
2020/12/12 05:31:36;;;;;;;15.90;8.38;;;;;;;9.50;55.77;153607.56;1721482;81;21482;-68
2020/12/12 05:34:14;;;;;;;15.03;7.85;;;;;;;9.44;55.81;153593.16;1726218;81;21284;-68
2020/12/12 05:36:48;;;;;;;14.33;7.65;;;;;;;9.49;55.97;153605.00;1751914;81;21287;-68
2020/12/12 05:39:20;;;;;;;18.27;8.23;;;;;;;9.34;55.72;153565.70;1752165;81;21539;-68
2020/12/12 05:41:52;;;;;;;17.25;9.00;;;;;;;9.44;55.81;153591.88;1722589;82;22063;-68
2020/12/12 05:44:25;;;;;;;16.90;8.90;;;;;;;9.19;55.96;153526.41;1733808;82;21254;-68
2020/12/12 05:47:00;;;;;;;13.58;8.08;;;;;;;9.15;55.59;153517.25;1730433;82;21468;-68
2020/12/12 05:49:35;;;;;;;17.30;8.15;;;;;;;9.09;55.86;153500.23;1698573;82;21424;-67
2020/12/12 05:52:07;;;;;;;15.40;9.10;;;;;;;9.08;55.86;153497.63;1720129;82;21258;-68
2020/12/12 05:54:40;;;;;;;14.20;8.13;;;;;;;9.14;55.87;153514.64;1721243;82;21338;-68
2020/12/12 05:57:12;;;;;;;13.28;7.60;;;;;;;9.03;55.54;153484.50;1720138;82;22115;-68
2020/12/12 05:59:45;;;;;;;17.50;8.53;;;;;;;9.14;55.77;153514.64;1724517;82;21246;-68
2020/12/12 06:02:17;;;;;;;14.90;7.70;;;;;;;9.18;56.59;153525.13;1741709;82;21270;-68
2020/12/12 06:04:53;;;;;;;14.33;8.35;;;;;;;9.25;55.92;153543.44;1748602;81;22176;-68
2020/12/12 06:07:34;;;;;;;16.85;8.50;;;;;;;9.23;55.59;153538.19;1754178;81;21234;-68
2020/12/12 06:10:07;;;;;;;18.03;8.00;;;;;;;9.24;55.61;153540.81;1752772;81;21231;-68
2020/12/12 06:12:39;;;;;;;16.93;7.75;;;;;;;9.11;56.09;153506.77;1750318;81;22221;-68
2020/12/12 06:15:12;;;;;;;17.35;8.38;;;;;;;9.16;56.91;153518.55;1753024;81;21284;-68
2020/12/12 06:18:11;;;;;;;22.32;9.68;;;;;;;9.22;55.98;153534.28;1751441;81;21291;-68
2020/12/12 06:20:44;;;;;;;17.50;8.78;;;;;;;9.28;56.04;153551.30;1752857;81;21523;-67
2020/12/12 06:23:16;;;;;;;18.67;9.63;;;;;;;9.25;55.86;153543.44;1747848;81;21305;-68
2020/12/12 06:25:48;;;;;;;18.20;9.03;;;;;;;9.24;55.69;153539.53;1732729;81;21246;-68
2020/12/12 06:28:23;;;;;;;16.30;8.60;;;;;;;9.38;56.00;153576.14;1734562;81;22052;-68
2020/12/12 06:30:57;;;;;;;21.12;9.10;;;;;;;9.26;56.26;153544.72;1719654;83;21532;-68
2020/12/12 06:33:30;;;;;;;22.62;12.07;;;;;;;9.23;56.65;153536.91;1752494;80;21205;-68
2020/12/12 06:36:24;;;;;;;21.80;10.72;;;;;;;9.23;56.02;153538.19;1753999;81;21368;-68
2020/12/12 06:39:21;;;;;;;22.70;9.15;;;;;;;9.23;55.91;153538.19;1753857;81;21257;-68
2020/12/12 06:41:59;;;;;;;15.85;8.33;;;;;;;9.32;56.08;153560.45;1755214;81;21236;-68
2020/12/12 06:44:43;;;;;;;15.88;8.53;;;;;;;9.36;56.13;153572.23;1753133;81;21225;-68
2020/12/12 06:47:16;;;;;;;17.92;7.95;;;;;;;9.36;56.13;153570.94;1754149;81;21275;-68
2020/12/12 06:49:50;;;;;;;16.82;8.35;;;;;;;9.36;56.44;153570.94;1753384;81;21287;-68
2020/12/12 06:52:32;;;;;;;16.73;8.43;;;;;;;9.36;57.46;153570.94;1721617;82;21204;-68
2020/12/12 06:55:07;;;;;;;22.35;8.83;;;;;;;9.34;57.10;153566.98;1718078;83;21244;-67
2020/12/12 06:57:47;;;;;;;18.98;8.20;;;;;;;9.36;56.86;153572.23;1753822;80;21419;-67
2020/12/12 07:00:31;;;;;;;15.10;7.65;;;;;;;9.25;65.65;153543.44;1752384;81;21528;-67
2020/12/12 07:03:05;;;;;;;14.05;7.60;;;;;;;9.31;58.10;153559.17;1751023;81;21233;-67
2020/12/12 07:05:39;;;;;;;16.10;8.35;;;;;;;9.29;58.82;153553.92;1753112;81;21385;-67
2020/12/12 07:08:12;;;;;;;13.95;8.45;;;;;;;9.31;58.90;153559.17;1751467;81;21231;-68
2020/12/12 07:10:45;;;;;;;17.70;8.80;;;;;;;9.35;60.22;153569.61;1752175;81;21368;-67
2020/12/12 07:13:17;;;;;;;17.70;8.10;;;;;;;9.25;59.20;153542.14;1752871;81;21953;-68
2020/12/12 07:15:49;;;;;;;22.48;10.00;;;;;;;9.25;59.09;153543.44;1725869;82;22134;-67
2020/12/12 07:18:23;;;;;;;18.82;8.78;;;;;;;9.22;58.33;153535.56;1721660;82;21227;-66
2020/12/12 07:20:56;;;;;;;17.40;8.70;;;;;;;9.25;62.29;153542.14;1751292;81;21256;-66
2020/12/12 07:23:30;;;;;;;16.45;8.20;;;;;;;9.29;60.86;153552.59;1750732;81;21535;-68
2020/12/12 07:26:02;;;;;;;18.32;9.70;;;;;;;9.33;60.70;153563.08;1722751;81;21236;-68
2020/12/12 07:28:35;;;;;;;19.00;10.60;;;;;;;9.38;60.29;153577.47;1751726;81;22053;-66
2020/12/12 07:31:07;;;;;;;17.17;8.75;;;;;;;9.38;60.06;153576.14;1749647;81;21475;-68
2020/12/12 07:33:40;;;;;;;20.45;10.05;;;;;;;9.34;61.44;153566.98;1723150;80;21565;-66
2020/12/12 07:36:13;;;;;;;19.23;10.03;;;;;;;9.35;60.66;153568.31;1724602;81;21185;-69
2020/12/12 07:38:45;;;;;;;24.02;10.55;;;;;;;9.31;59.86;153559.17;1744106;81;21326;-71
2020/12/12 07:41:17;;;;;;;18.90;10.40;;;;;;;9.31;62.42;153557.83;1734369;81;21231;-69
2020/12/12 07:43:55;;;;;;;26.85;12.47;;;;;;;9.24;63.42;153539.53;1705406;81;21232;-68
2020/12/12 07:46:40;;;;;;;30.35;14.10;;;;;;;9.27;63.02;153548.69;1743694;81;21219;-68
2020/12/12 07:49:18;;;;;;;26.97;11.63;;;;;;;9.33;62.83;153563.08;1751259;81;21240;-68
2020/12/12 07:51:53;;;;;;;24.80;11.40;;;;;;;9.40;61.95;153582.72;1723274;81;21237;-68
2020/12/12 07:54:32;;;;;;;21.95;11.22;;;;;;;9.32;73.04;153560.45;1743357;81;21232;-69
2020/12/12 07:57:07;;;;;;;22.10;10.82;;;;;;;9.40;64.76;153582.72;1755007;81;22313;-69
2020/12/12 07:59:41;;;;;;;19.40;11.20;;;;;;;9.49;63.53;153606.28;1755155;81;21522;-69
2020/12/12 08:02:14;;;;;;;21.75;9.98;;;;;;;9.53;63.42;153615.44;1751399;81;21237;-69
2020/12/12 08:04:47;;;;;;;21.75;10.25;;;;;;;9.59;62.49;153632.47;1719742;82;21255;-67
2020/12/12 08:07:20;;;;;;;23.10;11.45;;;;;;;9.53;63.32;153616.78;1753230;81;21264;-73
2020/12/12 08:09:54;;;;;;;24.32;11.10;;;;;;;9.50;65.86;153607.56;1730017;81;21413;-70
2020/12/12 08:12:32;;;;;;;20.37;12.03;;;;;;;9.57;66.34;153625.92;1734316;81;21234;-68
2020/12/12 08:15:20;;;;;;;20.80;10.20;;;;;;;9.62;66.27;153640.33;1746933;81;21956;-67
2020/12/12 08:17:51;;;;;;;40.95;19.92;;;;;;;10.78;65.60;153944.38;1755418;80;22159;-68
2020/12/12 08:20:25;;;;;;;36.88;18.62;;;;;;;10.22;63.28;153798.88;1753019;81;21437;-70
2020/12/12 08:23:00;;;;;;;33.28;15.85;;;;;;;10.18;64.73;153788.42;1752616;81;21637;-68
2020/12/12 08:25:34;;;;;;;24.55;12.53;;;;;;;11.02;63.37;154008.59;1754589;80;22115;-68
2020/12/12 08:28:09;;;;;;;24.45;11.70;;;;;;;11.16;62.75;154046.66;1752371;81;22324;-69
2020/12/12 08:30:45;;;;;;;20.08;10.85;;;;;;;11.24;62.77;154066.30;1753872;81;21227;-68
2020/12/12 08:33:30;;;;;;;21.30;9.33;;;;;;;11.22;66.55;154061.09;1753642;80;21295;-66
2020/12/12 08:39:37;;;;;;;19.57;9.38;;;;;;;11.18;65.15;154051.88;1751743;81;21413;-69
2020/12/12 08:42:24;;;;;;;20.65;9.43;;;;;;;11.24;63.33;154066.30;1727996;81;21301;-69
2020/12/12 08:44:56;;;;;;;18.87;8.45;;;;;;;11.17;66.39;154049.23;1720985;81;21249;-70
2020/12/12 08:47:29;;;;;;;19.42;9.70;;;;;;;11.11;66.79;154033.53;1754152;80;21284;-69
2020/12/12 08:50:08;;;;;;;20.30;9.15;;;;;;;11.12;65.18;154036.16;1718184;83;22088;-71
2020/12/12 08:52:43;;;;;;;22.55;9.48;;;;;;;11.50;65.18;154134.52;1721474;81;21264;-71
2020/12/12 08:55:17;;;;;;;19.42;9.33;;;;;;;11.48;65.54;154129.25;1746581;81;21296;-66
2020/12/12 08:58:01;;;;;;;23.90;11.08;;;;;;;11.34;65.27;154092.56;1679908;81;21496;-69
2020/12/12 09:00:33;;;;;;;22.75;10.48;;;;;;;11.21;72.40;154058.45;1752877;81;21236;-74
2020/12/12 09:03:07;;;;;;;22.62;11.30;;;;;;;11.31;65.93;154085.97;1720834;82;21400;-74
2020/12/12 09:05:41;;;;;;;24.47;11.53;;;;;;;11.30;68.92;154083.34;1725380;81;21397;-71
2020/12/12 09:08:18;;;;;;;37.90;13.75;;;;;;;11.32;66.98;154087.31;1737445;82;22017;-70
2020/12/12 09:10:51;;;;;;;39.75;13.90;;;;;;;11.41;65.51;154112.20;1740360;82;21400;-71
2020/12/12 09:13:28;;;;;;;35.05;15.28;;;;;;;11.44;67.26;154120.09;1757253;80;21265;-69
2020/12/12 09:16:01;;;;;;;28.67;13.88;;;;;;;11.37;67.73;154100.41;1754629;80;21368;-70
2020/12/12 09:18:45;;;;;;;23.57;10.63;;;;;;;11.48;65.91;154129.25;1754849;80;21250;-71
2020/12/12 09:21:18;;;;;;;26.35;11.80;;;;;;;11.46;68.41;154124.05;1747817;80;21217;-68
2020/12/12 09:23:51;;;;;;;20.55;9.53;;;;;;;11.53;67.36;154142.45;1755895;80;21386;-68
2020/12/12 09:26:26;;;;;;;27.70;11.05;;;;;;;11.56;66.39;154151.63;1752719;80;21418;-69
2020/12/12 09:28:59;;;;;;;26.62;11.08;;;;;;;11.40;70.36;154109.56;1754034;81;21276;-75
2020/12/12 09:31:37;;;;;;;25.80;10.75;;;;;;;11.43;67.51;154117.45;1725874;82;21251;-70
2020/12/12 09:34:11;;;;;;;18.92;10.03;;;;;;;11.30;66.71;154083.34;1717092;82;22051;-75
2020/12/12 09:36:44;;;;;;;25.55;11.22;;;;;;;11.48;66.12;154129.25;1726150;82;22056;-74
2020/12/12 09:39:18;;;;;;;21.17;10.08;;;;;;;11.57;65.03;154152.97;1733499;82;21520;-74
2020/12/12 09:42:02;;;;;;;22.45;9.95;;;;;;;11.55;65.93;154147.70;1743095;81;21306;-73
2020/12/12 09:44:31;;;;;;;25.40;13.50;;;;;;;11.47;69.18;154126.63;1717127;82;21440;-74
2020/12/12 09:47:04;;;;;;;23.98;11.45;;;;;;;11.40;68.18;154109.56;1726716;82;22100;-74
2020/12/12 09:49:39;;;;;;;33.35;12.82;;;;;;;11.26;67.33;154071.55;1742657;82;21242;-74
2020/12/12 09:52:11;;;;;;;23.52;11.08;;;;;;;11.01;70.28;154005.97;1731248;82;21388;-71
2020/12/12 09:54:44;;;;;;;25.92;11.65;;;;;;;10.99;69.28;154002.06;1730270;82;21486;-71
2020/12/12 09:57:20;;;;;;;34.80;16.15;;;;;;;11.03;69.52;154011.22;1740964;82;21393;-70
2020/12/12 09:59:56;;;;;;;39.10;17.27;;;;;;;11.16;67.48;154045.31;1732361;82;21404;-68
2020/12/12 10:02:31;;;;;;;29.98;15.13;;;;;;;10.94;64.87;153988.92;1726136;82;21229;-71
2020/12/12 10:05:07;;;;;;;24.23;12.98;;;;;;;10.73;66.45;153932.58;1716371;82;22051;-73
2020/12/12 10:07:41;;;;;;;29.32;13.05;;;;;;;10.81;67.23;153954.87;1731314;82;21274;-77
2020/12/12 10:10:14;;;;;;;23.70;12.58;;;;;;;10.78;68.20;153947.00;1733569;82;22068;-71
2020/12/12 10:12:47;;;;;;;22.25;11.78;;;;;;;10.76;67.54;153940.45;1728880;82;21306;-73
2020/12/12 10:15:20;;;;;;;23.07;10.95;;;;;;;10.60;66.61;153897.16;1736199;82;21431;-75
2020/12/12 10:17:52;;;;;;;23.85;11.70;;;;;;;10.54;65.65;153882.73;1743986;82;21331;-73
2020/12/12 10:20:25;;;;;;;28.65;12.28;;;;;;;10.60;66.20;153897.16;1722975;82;21242;-78
2020/12/12 10:22:58;;;;;;;22.13;11.70;;;;;;;10.65;68.18;153910.28;1723882;82;21453;-76
2020/12/12 10:25:30;;;;;;;28.50;12.73;;;;;;;10.74;66.97;153933.86;1737063;82;21250;-76
2020/12/12 10:28:05;;;;;;;29.37;12.55;;;;;;;10.61;67.64;153901.11;1725908;82;21278;-73
2020/12/12 10:30:37;;;;;;;24.63;12.50;;;;;;;10.69;67.55;153920.78;1741344;82;21231;-73
2020/12/12 10:33:10;;;;;;;20.92;11.18;;;;;;;10.67;64.71;153915.53;1737805;80;21238;-75
2020/12/12 10:35:42;;;;;;;24.60;11.45;;;;;;;10.62;69.12;153903.75;1732888;82;21302;-72
2020/12/12 10:38:15;;;;;;;27.48;12.07;;;;;;;10.68;68.13;153918.16;1714285;82;21254;-73
2020/12/12 10:40:59;;;;;;;24.63;12.05;;;;;;;10.58;67.68;153893.23;1694018;83;21243;-73
2020/12/12 10:43:22;;;;;;;26.62;13.40;;;;;;;10.65;66.53;153911.56;1700445;83;21866;-76
2020/12/12 10:45:55;;;;;;;25.68;12.80;;;;;;;10.44;69.21;153856.53;1709471;83;21388;-75
2020/12/12 10:48:28;;;;;;;23.25;11.50;;;;;;;10.30;69.63;153818.53;1703872;83;21294;-80
2020/12/12 10:51:00;;;;;;;20.37;9.93;;;;;;;10.29;67.07;153815.91;1694146;83;21873;-78
2020/12/12 10:53:33;;;;;;;23.90;11.97;;;;;;;10.29;67.20;153817.25;1697408;83;21328;-79
2020/12/12 10:56:06;;;;;;;22.40;10.25;;;;;;;10.15;69.36;153779.22;1697428;83;21402;-75
2020/12/12 10:58:40;;;;;;;26.10;12.47;;;;;;;10.09;72.75;153764.80;1701766;83;21239;-78
2020/12/12 11:01:13;;;;;;;28.80;12.63;;;;;;;10.14;68.50;153777.92;1693932;83;21261;-75
2020/12/12 11:03:46;;;;;;;28.05;13.00;;;;;;;10.19;67.17;153789.72;1693537;83;21264;-74
2020/12/12 11:06:21;;;;;;;28.17;12.07;;;;;;;10.22;69.15;153797.59;1724291;83;21288;-73
2020/12/12 11:08:54;;;;;;;22.30;10.35;;;;;;;10.15;76.54;153780.55;1722824;83;21287;-73
2020/12/12 11:11:27;;;;;;;22.75;10.95;;;;;;;10.23;70.04;153801.50;1724192;83;22108;-77
2020/12/12 11:14:00;;;;;;;26.12;11.33;;;;;;;10.37;68.35;153836.86;1725961;83;21252;-76
2020/12/12 11:16:34;;;;;;;21.07;10.78;;;;;;;10.28;70.98;153813.28;1698162;83;21735;-73
2020/12/12 11:19:06;;;;;;;21.68;11.25;;;;;;;10.01;70.33;153743.86;1689905;83;21397;-76
2020/12/12 11:21:40;;;;;;;23.30;11.30;;;;;;;10.14;70.77;153777.92;1702800;83;21246;-75
2020/12/12 11:24:13;;;;;;;23.22;11.22;;;;;;;10.04;69.80;153751.73;1719894;83;21269;-78
2020/12/12 11:26:46;;;;;;;25.97;11.28;;;;;;;10.03;69.07;153749.11;1690713;83;21515;-78
2020/12/12 11:29:19;;;;;;;20.10;10.35;;;;;;;9.96;69.29;153729.39;1713401;83;21262;-79
2020/12/12 11:31:53;;;;;;;23.60;10.80;;;;;;;10.34;69.65;149548.23;1698114;83;21469;-76
2020/12/12 11:40:16;;;;;;;22.82;9.78;;;;;;;10.46;71.27;153860.48;1694064;83;21811;-77
2020/12/12 11:45:43;;;;;;;22.93;10.35;;;;;;;10.45;69.68;153859.16;1694067;83;21498;-76
2020/12/12 11:48:01;;;;;;;22.23;10.17;;;;;;;10.50;71.38;153872.28;1696737;83;21400;-76
2020/12/12 11:50:35;;;;;;;27.77;11.45;;;;;;;10.49;71.15;153868.31;1705735;83;21870;-74
2020/12/12 11:53:09;;;;;;;22.10;10.85;;;;;;;10.51;70.36;153873.56;1714861;83;21828;-78
2020/12/12 11:55:42;;;;;;;24.12;10.43;;;;;;;10.42;67.93;153851.28;1691369;83;21306;-81
2020/12/12 11:58:14;;;;;;;23.35;10.70;;;;;;;10.65;68.45;153911.56;1702742;83;21341;-81